createdAt,value
2018-06-23T00:01:12.335Z,4.87
2018-06-23T00:03:39.600Z,5.00
2018-06-23T00:06:06.943Z,4.73
2018-06-23T00:08:34.211Z,4.37
2018-06-23T00:11:01.513Z,4.23
2018-06-23T00:13:28.805Z,4.70
2018-06-23T00:15:56.139Z,4.90
2018-06-23T00:18:23.384Z,5.30
2018-06-23T00:20:50.640Z,4.50
2018-06-23T00:23:17.936Z,4.67
2018-06-23T00:25:50.563Z,4.53
2018-06-23T00:28:17.885Z,5.00
2018-06-23T00:30:45.173Z,4.90
2018-06-23T00:33:12.456Z,4.67
2018-06-23T00:35:39.707Z,4.47
2018-06-23T00:38:07.009Z,5.63
2018-06-23T00:40:34.275Z,5.17
2018-06-23T00:43:01.569Z,4.53
2018-06-23T00:45:28.832Z,4.30
2018-06-23T00:47:56.131Z,4.67
2018-06-23T00:50:23.409Z,4.03
2018-06-23T00:52:50.692Z,4.93
2018-06-23T00:55:17.956Z,5.00
2018-06-23T00:57:45.239Z,5.00
2018-06-23T01:00:12.513Z,5.10
2018-06-23T01:02:39.801Z,4.70
2018-06-23T01:05:07.100Z,5.03
2018-06-23T01:07:34.404Z,5.10
2018-06-23T01:10:01.710Z,4.60
2018-06-23T01:12:29.001Z,4.60
2018-06-23T01:14:56.278Z,5.13
2018-06-23T01:17:23.540Z,5.77
2018-06-23T01:19:50.813Z,4.50
2018-06-23T01:22:18.227Z,5.83
2018-06-23T01:24:45.569Z,5.60
2018-06-23T01:27:12.918Z,5.87
2018-06-23T01:29:40.204Z,6.43
2018-06-23T01:32:07.498Z,5.43
2018-06-23T01:34:34.760Z,6.40
2018-06-23T01:37:02.064Z,5.43
2018-06-23T01:39:29.345Z,5.93
2018-06-23T01:41:56.630Z,6.80
2018-06-23T01:44:23.891Z,5.67
2018-06-23T01:46:51.164Z,5.93
2018-06-23T01:49:18.424Z,5.67
2018-06-23T01:51:45.697Z,5.70
2018-06-23T01:54:12.992Z,5.03
2018-06-23T01:56:40.279Z,5.80
2018-06-23T01:59:07.577Z,5.97
2018-06-23T02:01:34.853Z,6.17
2018-06-23T02:04:02.245Z,5.87
2018-06-23T02:06:29.508Z,6.07
2018-06-23T02:08:56.791Z,6.07
2018-06-23T02:11:24.112Z,5.23
2018-06-23T02:13:56.972Z,6.03
2018-06-23T02:16:29.701Z,6.23
2018-06-23T02:19:02.439Z,5.70
2018-06-23T02:21:35.168Z,5.40
2018-06-23T02:24:07.741Z,6.97
2018-06-23T02:26:40.477Z,5.87
2018-06-23T02:29:13.216Z,5.87
2018-06-23T02:31:45.879Z,5.93
2018-06-23T02:34:18.697Z,5.60
2018-06-23T02:36:45.965Z,6.20
2018-06-23T02:39:13.233Z,5.20
2018-06-23T02:41:40.493Z,5.47
2018-06-23T02:44:07.805Z,6.53
2018-06-23T02:46:35.044Z,6.20
2018-06-23T02:49:02.313Z,5.90
2018-06-23T02:51:29.604Z,5.60
2018-06-23T02:53:56.887Z,6.60
2018-06-23T02:56:24.141Z,5.53
2018-06-23T02:58:51.405Z,6.23
2018-06-23T03:01:18.960Z,6.37
2018-06-23T03:03:46.284Z,5.83
2018-06-23T03:06:13.544Z,5.73
2018-06-23T03:08:40.836Z,6.07
2018-06-23T03:11:08.118Z,5.97
2018-06-23T03:13:35.524Z,6.60
2018-06-23T03:16:02.817Z,5.77
2018-06-23T03:18:30.109Z,6.17
2018-06-23T03:20:57.375Z,6.30
2018-06-23T03:23:24.653Z,6.57
2018-06-23T03:25:51.932Z,7.67
2018-06-23T03:28:19.268Z,6.00
2018-06-23T03:30:46.921Z,6.33
2018-06-23T03:33:14.255Z,5.90
2018-06-23T03:35:41.517Z,5.83
2018-06-23T03:38:08.828Z,6.00
2018-06-23T03:40:36.088Z,6.40
2018-06-23T03:43:03.360Z,5.63
2018-06-23T03:45:30.636Z,6.00
2018-06-23T03:47:57.922Z,5.90
2018-06-23T03:50:25.348Z,6.13
2018-06-23T03:52:52.620Z,6.90
2018-06-23T03:55:19.944Z,6.20
2018-06-23T03:57:47.223Z,6.07
2018-06-23T04:00:14.560Z,6.70
2018-06-23T05:24:38.789Z,6.13
2018-06-23T05:27:06.057Z,6.53
2018-06-23T05:29:33.363Z,7.30
2018-06-23T05:32:00.625Z,5.40
2018-06-23T05:34:27.896Z,5.90
2018-06-23T05:36:55.154Z,5.47
2018-06-23T05:39:22.501Z,6.60
2018-06-23T05:41:49.744Z,6.00
2018-06-23T05:44:17.020Z,6.23
2018-06-23T07:08:41.334Z,4.00
2018-06-23T07:11:08.616Z,3.77
2018-06-23T07:13:35.874Z,4.10
2018-06-23T07:16:03.175Z,3.87
2018-06-23T07:18:30.448Z,3.50
2018-06-23T07:20:57.753Z,4.17
2018-06-23T07:23:25.019Z,3.97
2018-06-23T07:25:52.326Z,3.80
2018-06-23T07:28:19.585Z,3.80
2018-06-23T07:30:46.912Z,3.30
2018-06-23T07:33:14.161Z,3.50
2018-06-23T07:35:41.455Z,3.53
2018-06-23T07:38:08.717Z,3.47
2018-06-23T07:40:36.012Z,3.40
2018-06-23T07:43:03.273Z,3.30
2018-06-23T07:45:30.561Z,3.77
2018-06-23T07:47:59.951Z,3.93
2018-06-23T07:50:27.265Z,3.60
2018-06-23T07:52:54.525Z,3.47
2018-06-23T07:58:13.753Z,3.60
2018-06-23T08:00:41.089Z,3.37
2018-06-23T08:03:08.341Z,3.23
2018-06-23T08:05:35.638Z,2.90
2018-06-23T08:08:02.935Z,3.93
2018-06-23T08:10:30.248Z,3.47
2018-06-23T08:12:57.560Z,3.73
2018-06-23T08:15:24.856Z,3.50
2018-06-23T08:17:52.161Z,3.23
2018-06-23T08:20:19.453Z,3.37
2018-06-23T08:22:46.751Z,2.90
2018-06-23T08:25:14.020Z,4.20
2018-06-23T08:27:41.313Z,3.30
2018-06-23T08:30:08.592Z,3.23
2018-06-23T08:32:35.875Z,4.10
2018-06-23T08:35:03.281Z,3.27
2018-06-23T08:37:30.552Z,3.10
2018-06-23T08:39:57.838Z,3.33
2018-06-23T08:42:25.156Z,3.73
2018-06-23T08:44:52.436Z,3.17
2018-06-23T08:47:20.710Z,3.43
2018-06-23T08:49:48.379Z,3.67
2018-06-23T08:52:16.114Z,3.70
2018-06-23T08:54:43.718Z,3.50
2018-06-23T08:57:11.432Z,3.17
2018-06-23T08:59:39.106Z,4.33
2018-06-23T09:02:07.248Z,3.73
2018-06-23T09:04:34.867Z,4.10
2018-06-23T09:07:02.589Z,3.60
2018-06-23T09:09:30.663Z,2.87
2018-06-23T09:11:58.155Z,3.47
2018-06-23T09:14:26.117Z,3.70
2018-06-23T09:16:53.629Z,4.07
2018-06-23T09:19:21.021Z,4.17
2018-06-23T09:21:48.991Z,3.50
2018-06-23T09:24:16.507Z,3.20
2018-06-23T09:26:43.941Z,3.00
2018-06-23T09:29:11.316Z,3.97
2018-06-23T09:31:38.828Z,3.23
2018-06-23T09:34:06.279Z,3.20
2018-06-23T09:36:33.876Z,3.53
2018-06-23T09:39:01.578Z,2.83
2018-06-23T09:41:29.226Z,3.30
2018-06-23T09:43:56.802Z,3.63
2018-06-23T09:46:24.341Z,2.90
2018-06-23T09:48:51.809Z,3.10
2018-06-23T09:51:19.344Z,3.40
2018-06-23T09:53:46.746Z,3.70
2018-06-23T09:56:14.112Z,3.37
2018-06-23T09:58:41.519Z,3.10
2018-06-23T10:01:09.021Z,3.40
2018-06-23T10:03:36.654Z,3.10
2018-06-23T10:06:04.169Z,2.53
2018-06-23T10:08:31.738Z,3.00
2018-06-23T10:10:59.265Z,2.60
2018-06-23T10:13:27.227Z,3.50
2018-06-23T10:15:54.733Z,2.53
2018-06-23T10:18:22.399Z,2.80
2018-06-23T10:20:49.953Z,2.80
2018-06-23T10:23:18.051Z,2.53
2018-06-23T10:25:45.559Z,2.20
2018-06-23T10:28:13.124Z,2.90
2018-06-23T10:30:40.625Z,2.80
2018-06-23T10:33:08.262Z,3.57
2018-06-23T10:35:35.835Z,3.00
2018-06-23T10:38:03.452Z,3.07
2018-06-23T10:40:31.094Z,2.97
2018-06-23T10:42:58.705Z,3.00
2018-06-23T10:45:26.281Z,2.63
2018-06-23T10:47:59.374Z,3.40
2018-06-23T10:50:27.201Z,2.90
2018-06-23T10:52:55.097Z,3.03
2018-06-23T10:55:22.857Z,3.80
2018-06-23T10:57:50.685Z,3.20
2018-06-23T11:00:18.167Z,3.13
2018-06-23T11:02:45.740Z,2.80
2018-06-23T11:05:13.116Z,3.50
2018-06-23T11:07:40.610Z,3.23
2018-06-23T11:10:08.133Z,3.53
2018-06-23T11:12:35.549Z,4.00
2018-06-23T11:15:02.989Z,2.97
2018-06-23T11:17:30.452Z,2.67
2018-06-23T11:19:57.890Z,3.10
2018-06-23T11:22:25.448Z,2.80
2018-06-23T11:24:52.845Z,2.87
2018-06-23T11:27:20.375Z,3.53
2018-06-23T11:29:47.824Z,2.47
2018-06-23T11:32:15.446Z,3.10
2018-06-23T11:34:42.837Z,2.87
2018-06-23T11:37:10.944Z,2.53
2018-06-23T11:39:38.447Z,2.80
2018-06-23T11:42:05.894Z,3.03
2018-06-23T11:44:33.407Z,2.83
2018-06-23T11:47:00.872Z,2.27
2018-06-23T11:49:28.600Z,2.87
2018-06-23T11:51:56.142Z,3.00
2018-06-23T11:54:23.563Z,3.00
2018-06-23T11:56:50.965Z,2.90
2018-06-23T11:59:18.519Z,2.57
2018-06-23T12:01:46.088Z,3.20
2018-06-23T12:04:17.968Z,3.20
2018-06-23T12:06:45.299Z,3.00
2018-06-23T12:09:12.728Z,3.20
2018-06-23T12:11:40.824Z,2.87
2018-06-23T12:14:08.221Z,3.13
2018-06-23T12:16:35.857Z,3.27
2018-06-23T12:19:03.863Z,2.90
2018-06-23T12:21:31.257Z,3.00
2018-06-23T12:23:58.732Z,2.93
2018-06-23T12:26:26.196Z,3.10
2018-06-23T12:28:53.757Z,3.20
2018-06-23T12:31:21.253Z,3.23
2018-06-23T12:33:48.670Z,2.97
2018-06-23T12:36:16.194Z,3.20
2018-06-23T12:38:43.856Z,2.83
2018-06-23T12:41:11.376Z,2.70
2018-06-23T12:43:38.909Z,3.17
2018-06-23T12:46:06.371Z,3.20
2018-06-23T12:48:33.865Z,3.00
2018-06-23T12:51:01.348Z,3.03
2018-06-23T12:53:28.736Z,3.20
2018-06-23T12:55:56.174Z,3.13
2018-06-23T12:58:23.588Z,3.23
2018-06-23T13:00:50.943Z,3.83
2018-06-23T13:03:21.032Z,3.50
2018-06-23T13:05:48.452Z,2.70
2018-06-23T13:08:15.917Z,3.37
2018-06-23T13:10:43.373Z,3.27
2018-06-23T13:13:11.620Z,3.23
2018-06-23T13:15:39.113Z,3.67
2018-06-23T13:18:08.156Z,3.77
2018-06-23T13:20:35.696Z,3.40
2018-06-23T13:23:03.112Z,3.90
2018-06-23T13:25:30.667Z,3.53
2018-06-23T13:27:58.174Z,3.63
2018-06-23T13:30:25.578Z,3.80
2018-06-23T13:32:53.131Z,3.27
2018-06-23T13:35:20.641Z,3.50
2018-06-23T13:37:48.017Z,4.33
2018-06-23T13:40:15.488Z,3.20
2018-06-23T13:42:42.954Z,3.60
2018-06-23T13:45:11.007Z,3.70
2018-06-23T13:47:38.460Z,3.47
2018-06-23T13:50:05.930Z,3.57
2018-06-23T13:52:33.550Z,3.60
2018-06-23T13:55:00.935Z,3.50
2018-06-23T13:57:28.443Z,3.87
2018-06-23T13:59:56.021Z,3.30
2018-06-23T14:02:23.389Z,3.63
2018-06-23T14:04:50.748Z,3.80
2018-06-23T14:07:18.266Z,3.80
2018-06-23T14:09:45.777Z,3.50
2018-06-23T14:12:13.317Z,3.50
2018-06-23T14:14:41.850Z,3.90
2018-06-23T14:17:09.626Z,3.93
2018-06-23T14:19:37.117Z,3.47
2018-06-23T14:22:04.609Z,3.63
2018-06-23T14:24:32.019Z,3.37
2018-06-23T14:26:59.421Z,3.20
2018-06-23T14:29:26.898Z,3.73
2018-06-23T14:31:54.590Z,3.97
2018-06-23T14:34:21.994Z,3.93
2018-06-23T14:36:49.459Z,3.60
2018-06-23T14:39:17.016Z,3.73
2018-06-23T14:41:44.508Z,4.30
2018-06-23T14:44:11.972Z,3.50
2018-06-23T14:46:39.444Z,3.70
2018-06-23T14:49:06.833Z,4.03
2018-06-23T14:51:34.350Z,3.60
2018-06-23T14:54:01.852Z,4.43
2018-06-23T14:56:29.325Z,3.20
2018-06-23T14:58:56.733Z,3.63
2018-06-23T15:01:24.220Z,3.90
2018-06-23T15:03:51.698Z,3.63
2018-06-23T15:06:19.206Z,3.37
2018-06-23T15:08:52.151Z,3.70
2018-06-23T15:11:25.278Z,3.90
2018-06-23T15:13:52.641Z,3.47
2018-06-23T15:16:20.333Z,3.60
2018-06-23T15:18:47.781Z,3.60
2018-06-23T15:21:15.184Z,4.00
2018-06-23T15:23:42.594Z,3.43
2018-06-23T15:26:10.597Z,3.53
2018-06-23T15:28:38.039Z,3.50
2018-06-23T15:31:05.428Z,4.10
2018-06-23T15:33:32.819Z,3.73
2018-06-23T15:36:00.246Z,2.80
2018-06-23T15:38:27.636Z,2.73
2018-06-23T15:40:55.322Z,3.00
2018-06-23T15:43:22.786Z,3.40
2018-06-23T15:45:50.237Z,3.30
2018-06-23T15:48:17.592Z,4.67
2018-06-23T15:50:45.100Z,8.23
2018-06-23T15:53:12.633Z,3.47
2018-06-23T15:55:41.045Z,5.57
2018-06-23T15:58:08.440Z,10.03
2018-06-23T16:00:35.832Z,2.80
2018-06-23T16:03:03.287Z,3.53
2018-06-23T16:05:30.812Z,2.73
2018-06-23T16:07:58.340Z,2.70
2018-06-23T16:10:26.217Z,2.30
2018-06-23T16:12:54.615Z,2.07
2018-06-23T16:15:22.138Z,2.57
2018-06-23T16:17:49.625Z,2.33
2018-06-23T16:20:17.127Z,2.20
2018-06-23T16:22:45.415Z,2.10
2018-06-23T16:25:12.819Z,1.97
2018-06-23T16:27:40.709Z,2.30
2018-06-23T16:30:08.158Z,2.33
2018-06-23T16:32:35.598Z,2.70
2018-06-23T16:35:03.132Z,2.30
2018-06-23T16:37:30.481Z,2.40
2018-06-23T16:39:57.861Z,2.30
2018-06-23T16:42:25.491Z,2.20
2018-06-23T16:44:52.920Z,2.03
2018-06-23T16:47:20.469Z,2.53
2018-06-23T16:49:48.102Z,2.00
2018-06-23T16:52:15.545Z,2.50
2018-06-23T16:54:43.067Z,2.50
2018-06-23T16:57:11.406Z,2.50
2018-06-23T16:59:38.797Z,2.30
2018-06-23T17:02:06.180Z,3.03
2018-06-23T17:04:33.546Z,2.27
2018-06-23T17:07:00.986Z,3.07
2018-06-23T17:09:28.396Z,2.90
2018-06-23T17:11:55.909Z,2.93
2018-06-23T17:14:23.416Z,3.10
2018-06-23T17:16:50.914Z,2.87
2018-06-23T17:19:18.381Z,2.87
2018-06-23T17:21:46.038Z,2.90
2018-06-23T17:24:13.610Z,2.97
2018-06-23T17:26:42.120Z,3.10
2018-06-23T17:29:09.514Z,3.10
2018-06-23T17:31:37.002Z,2.97
2018-06-23T17:34:04.387Z,3.50
2018-06-23T17:36:31.918Z,3.30
2018-06-23T17:38:59.409Z,3.20
2018-06-23T17:41:26.971Z,2.77
2018-06-23T17:43:54.477Z,3.10
2018-06-23T17:46:21.998Z,3.20
2018-06-23T17:48:49.360Z,3.00
2018-06-23T17:51:16.804Z,3.50
2018-06-23T17:53:44.356Z,3.20
2018-06-23T17:56:12.396Z,3.20
2018-06-23T17:58:39.912Z,3.03
2018-06-23T18:01:07.469Z,3.47
2018-06-23T18:03:34.995Z,3.37
2018-06-23T18:06:02.442Z,2.77
2018-06-23T18:08:29.815Z,3.10
2018-06-23T18:10:57.216Z,2.57
2018-06-23T18:13:24.809Z,3.07
2018-06-23T18:15:52.324Z,3.00
2018-06-23T18:18:21.832Z,3.23
2018-06-23T18:20:49.203Z,3.10
2018-06-23T18:23:16.799Z,3.30
2018-06-23T18:25:44.425Z,3.83
2018-06-23T18:28:11.939Z,3.17
2018-06-23T18:30:39.693Z,3.23
2018-06-23T18:33:07.256Z,3.40
2018-06-23T18:35:34.672Z,3.50
2018-06-23T18:38:02.044Z,3.57
2018-06-23T18:40:29.596Z,4.10
2018-06-23T18:42:57.037Z,4.17
2018-06-23T18:45:24.430Z,3.87
2018-06-23T18:47:51.855Z,3.50
2018-06-23T18:50:19.301Z,4.10
2018-06-23T18:52:46.721Z,4.10
2018-06-23T18:55:14.157Z,4.10
2018-06-23T18:57:42.368Z,4.27
2018-06-23T19:00:09.965Z,3.60
2018-06-23T19:02:37.420Z,3.90
2018-06-23T19:05:05.042Z,3.73
2018-06-23T19:07:32.521Z,3.93
2018-06-23T19:09:59.917Z,4.17
2018-06-23T19:12:27.394Z,3.63
2018-06-23T19:14:54.824Z,4.10
2018-06-23T19:17:22.265Z,3.73
2018-06-23T19:19:49.787Z,3.80
2018-06-23T19:22:17.240Z,3.80
2018-06-23T19:24:44.596Z,4.00
2018-06-23T19:27:12.056Z,4.20
2018-06-23T19:29:39.909Z,4.23
2018-06-23T19:32:07.417Z,4.10
2018-06-23T19:34:34.773Z,4.23
2018-06-23T19:37:02.252Z,4.17
2018-06-23T19:39:29.648Z,4.20
2018-06-23T19:41:57.223Z,4.90
2018-06-23T19:44:24.750Z,4.23
2018-06-23T19:46:52.094Z,4.57
2018-06-23T19:49:19.552Z,4.70
2018-06-23T19:51:47.158Z,4.47
2018-06-23T19:54:14.610Z,4.73
2018-06-23T19:56:42.013Z,4.47
2018-06-23T19:59:09.834Z,4.40
2018-06-23T20:01:37.237Z,5.23
2018-06-23T20:04:04.740Z,5.07
2018-06-23T20:06:32.216Z,5.50
2018-06-23T20:09:00.849Z,6.20
2018-06-23T20:11:28.253Z,5.50
2018-06-23T20:13:55.740Z,4.97
2018-06-23T20:16:23.244Z,4.93
2018-06-23T20:18:50.708Z,5.33
2018-06-23T20:21:18.240Z,7.00
2018-06-23T20:23:45.801Z,7.13
2018-06-23T20:26:13.176Z,6.00
2018-06-23T20:28:41.245Z,5.03
2018-06-23T20:31:08.786Z,5.43
2018-06-23T20:33:36.496Z,5.50
2018-06-23T20:36:04.015Z,5.97
2018-06-23T20:38:31.397Z,6.80
2018-06-23T20:40:58.772Z,6.57
2018-06-23T20:43:26.252Z,5.80
2018-06-23T20:45:53.739Z,6.60
2018-06-23T20:48:21.290Z,6.60
2018-06-23T20:50:48.840Z,6.60
2018-06-23T20:53:17.281Z,7.07
2018-06-23T20:55:44.788Z,7.27
2018-06-23T20:58:12.303Z,6.67
2018-06-23T21:00:40.504Z,7.20
2018-06-23T21:03:08.067Z,7.67
2018-06-23T21:05:35.569Z,6.87
2018-06-23T21:08:03.088Z,7.37
2018-06-23T21:10:38.187Z,7.10
2018-06-23T21:13:05.660Z,7.13
2018-06-23T21:15:33.008Z,6.57
2018-06-23T21:18:00.580Z,7.67
2018-06-23T21:20:28.152Z,6.97
2018-06-23T21:22:55.632Z,7.20
2018-06-23T21:25:23.056Z,8.03
2018-06-23T21:27:50.527Z,7.73
2018-06-23T21:30:17.914Z,8.00
2018-06-23T21:32:45.276Z,7.40
2018-06-23T21:35:12.712Z,7.30
2018-06-23T21:37:40.723Z,7.90
2018-06-23T21:40:08.162Z,7.73
2018-06-23T21:42:35.521Z,7.30
2018-06-23T21:45:02.997Z,7.07
2018-06-23T21:47:30.414Z,6.63
2018-06-23T21:49:57.904Z,6.93
2018-06-23T21:52:25.332Z,6.00
2018-06-23T21:54:52.704Z,6.30
2018-06-23T21:57:20.224Z,5.93
2018-06-23T21:59:47.622Z,5.97
2018-06-23T22:02:15.041Z,5.70
2018-06-23T22:04:42.537Z,5.87
2018-06-23T22:07:10.618Z,6.10
2018-06-23T22:09:38.013Z,6.30
2018-06-23T22:12:05.595Z,6.50
2018-06-23T22:14:33.024Z,6.13
2018-06-23T22:17:00.504Z,5.97
2018-06-23T22:19:27.993Z,6.30
2018-06-23T22:21:55.380Z,6.77
2018-06-23T22:24:22.792Z,5.70
2018-06-23T22:26:50.300Z,5.90
2018-06-23T22:29:17.720Z,6.03
2018-06-23T22:31:45.229Z,5.53
2018-06-23T22:34:12.717Z,6.23
2018-06-23T22:36:41.237Z,6.43
2018-06-23T22:39:10.052Z,6.17
2018-06-23T22:41:37.500Z,6.37
2018-06-23T22:44:05.013Z,5.93
2018-06-23T22:46:32.413Z,6.33
2018-06-23T22:48:59.946Z,6.33
2018-06-23T22:51:27.369Z,6.77
2018-06-23T22:53:54.889Z,7.13
2018-06-23T22:56:22.374Z,6.70
2018-06-23T22:58:49.880Z,7.50
2018-06-23T23:01:17.390Z,6.47
2018-06-23T23:03:44.788Z,7.00
2018-06-23T23:06:12.305Z,6.60
2018-06-23T23:08:40.439Z,6.60
2018-06-23T23:11:07.806Z,6.10
2018-06-23T23:13:35.320Z,6.50
2018-06-23T23:16:02.882Z,6.50
2018-06-23T23:18:30.397Z,6.60
2018-06-23T23:20:57.871Z,6.50
2018-06-23T23:23:25.344Z,6.23
2018-06-23T23:25:52.853Z,6.23
2018-06-23T23:28:20.290Z,6.47
2018-06-23T23:30:47.704Z,6.60
2018-06-23T23:33:15.103Z,6.73
2018-06-23T23:35:42.565Z,6.67
2018-06-23T23:38:10.464Z,6.20
2018-06-23T23:40:37.844Z,6.47
2018-06-23T23:43:05.386Z,6.37
2018-06-23T23:45:32.948Z,6.60
2018-06-23T23:48:00.467Z,6.87
2018-06-23T23:50:27.918Z,6.70
2018-06-23T23:52:55.432Z,6.77
2018-06-23T23:55:23.080Z,7.60
2018-06-23T23:57:50.617Z,6.87
